createdAt,value
2022-08-17T00:02:06.558Z,18.34
2022-08-17T00:05:27.698Z,18.45
2022-08-17T00:08:35.949Z,18.50
2022-08-17T00:11:40.226Z,18.55
2022-08-17T00:14:41.683Z,18.56
2022-08-17T00:17:46.870Z,18.58
2022-08-17T00:20:48.311Z,18.58
2022-08-17T00:23:50.199Z,18.55
2022-08-17T00:26:51.660Z,18.51
2022-08-17T00:29:53.113Z,18.53
2022-08-17T00:33:13.920Z,18.56
2022-08-17T00:36:18.227Z,18.66
2022-08-17T00:39:19.685Z,18.79
2022-08-17T00:42:21.112Z,18.88
2022-08-17T00:45:22.565Z,19.03
2022-08-17T00:48:29.590Z,19.11
2022-08-17T00:51:38.570Z,19.10
2022-08-17T00:54:43.124Z,19.06
2022-08-17T00:57:51.244Z,18.98
2022-08-17T01:00:56.253Z,18.90
2022-08-17T01:03:59.852Z,18.76
2022-08-17T01:07:03.246Z,18.60
2022-08-17T01:10:59.779Z,18.47
2022-08-17T01:13:42.324Z,18.34
2022-08-17T01:16:43.818Z,18.25
2022-08-17T01:19:45.300Z,18.22
2022-08-17T01:22:46.798Z,18.25
2022-08-17T01:25:55.150Z,18.37
2022-08-17T01:28:56.642Z,18.53
2022-08-17T01:32:03.392Z,18.65
2022-08-17T01:35:05.992Z,18.76
2022-08-17T01:38:08.025Z,18.84
2022-08-17T01:41:13.621Z,18.95
2022-08-17T01:44:16.249Z,19.09
2022-08-17T01:47:17.692Z,19.15
2022-08-17T01:50:26.837Z,19.21
2022-08-17T01:53:40.452Z,19.18
2022-08-17T01:56:47.477Z,19.19
2022-08-17T01:59:49.404Z,19.12
2022-08-17T02:02:50.978Z,19.15
2022-08-17T02:05:52.679Z,19.13
2022-08-17T02:09:02.689Z,19.14
2022-08-17T02:12:39.497Z,19.09
2022-08-17T02:15:27.313Z,19.24
2022-08-17T02:18:28.814Z,19.30
2022-08-17T02:21:30.375Z,19.25
2022-08-17T02:24:59.992Z,19.28
2022-08-17T02:27:57.153Z,19.32
2022-08-17T02:31:08.441Z,19.36
2022-08-17T02:34:10.129Z,19.51
2022-08-17T02:37:11.623Z,19.55
2022-08-17T02:40:13.191Z,19.53
2022-08-17T02:43:15.104Z,19.36
2022-08-17T02:46:16.590Z,19.12
2022-08-17T02:49:18.065Z,18.82
2022-08-17T02:52:19.518Z,18.56
2022-08-17T02:55:42.410Z,18.38
2022-08-17T02:58:44.170Z,18.27
2022-08-17T03:01:45.667Z,18.20
2022-08-17T03:04:47.143Z,18.15
2022-08-17T03:07:48.918Z,18.09
2022-08-17T03:10:50.529Z,18.10
2022-08-17T03:13:52.212Z,18.08
2022-08-17T03:16:53.672Z,18.03
2022-08-17T03:19:55.106Z,18.00
2022-08-17T03:23:02.840Z,17.94
2022-08-17T03:26:04.562Z,17.93
2022-08-17T03:29:13.701Z,17.88
2022-08-17T03:32:16.479Z,17.88
2022-08-17T03:35:20.336Z,17.86
2022-08-17T03:38:21.850Z,17.87
2022-08-17T03:41:24.695Z,17.89
2022-08-17T03:44:26.157Z,17.90
2022-08-17T03:47:27.960Z,17.87
2022-08-17T03:50:29.570Z,17.89
2022-08-17T03:53:30.996Z,17.91
2022-08-17T03:56:33.714Z,17.89
2022-08-17T03:59:36.349Z,17.86
2022-08-17T04:02:37.791Z,17.80
2022-08-17T04:05:39.762Z,17.81
2022-08-17T04:08:41.425Z,17.80
2022-08-17T04:11:43.055Z,17.84
2022-08-17T04:14:52.037Z,17.86
2022-08-17T04:17:55.828Z,17.89
2022-08-17T04:20:57.389Z,17.90
2022-08-17T04:24:00.427Z,17.87
2022-08-17T04:27:01.912Z,17.90
2022-08-17T04:30:05.140Z,17.86
2022-08-17T04:33:13.149Z,17.84
2022-08-17T04:36:15.741Z,17.86
2022-08-17T04:39:17.187Z,17.81
2022-08-17T04:42:18.634Z,17.77
2022-08-17T04:45:20.209Z,17.73
2022-08-17T04:48:27.952Z,17.71
2022-08-17T04:51:45.531Z,17.75
2022-08-17T04:54:56.202Z,17.79
2022-08-17T04:57:57.686Z,17.82
2022-08-17T05:00:59.453Z,17.83
2022-08-17T05:04:21.446Z,17.85
2022-08-17T05:07:31.280Z,17.85
2022-08-17T05:10:37.881Z,17.88
2022-08-17T05:13:47.667Z,17.89
2022-08-17T05:16:49.236Z,17.95
2022-08-17T05:19:52.107Z,17.92
2022-08-17T05:22:56.572Z,17.88
2022-08-17T05:25:58.084Z,17.90
2022-08-17T05:29:02.531Z,17.88
2022-08-17T05:32:38.674Z,17.86
2022-08-17T05:35:36.363Z,17.87
2022-08-17T05:38:37.844Z,17.87
2022-08-17T05:41:39.284Z,17.86
2022-08-17T05:44:40.780Z,17.85
2022-08-17T05:47:44.320Z,17.83
2022-08-17T05:50:55.605Z,17.81
2022-08-17T05:54:23.602Z,17.88
2022-08-17T05:57:57.968Z,17.86
2022-08-17T06:01:24.432Z,17.86
2022-08-17T06:04:40.912Z,17.85
2022-08-17T06:08:11.943Z,17.86
2022-08-17T06:11:21.491Z,17.87
2022-08-17T06:14:54.533Z,17.97
2022-08-17T06:18:03.564Z,18.04
2022-08-17T06:21:10.997Z,18.08
2022-08-17T06:24:28.477Z,18.08
2022-08-17T06:27:44.995Z,18.14
2022-08-17T06:31:00.213Z,18.14
2022-08-17T06:34:06.462Z,18.12
2022-08-17T06:37:21.584Z,18.20
2022-08-17T06:40:49.462Z,18.26
2022-08-17T06:43:58.900Z,18.33
2022-08-17T06:47:10.818Z,18.40
2022-08-17T06:50:15.226Z,18.47
2022-08-17T06:53:40.630Z,18.56
2022-08-17T06:56:53.996Z,18.62
2022-08-17T07:00:05.430Z,18.57
2022-08-17T07:03:26.237Z,18.54
2022-08-17T07:06:34.079Z,18.53
2022-08-17T07:09:43.047Z,18.54
2022-08-17T07:12:51.032Z,18.61
2022-08-17T07:15:59.417Z,18.55
2022-08-17T07:19:00.963Z,18.63
2022-08-17T07:22:07.212Z,18.70
2022-08-17T07:25:13.028Z,18.75
2022-08-17T07:28:22.222Z,18.91
2022-08-17T07:31:28.390Z,19.12
2022-08-17T07:34:29.890Z,19.39
2022-08-17T07:37:31.339Z,19.41
2022-08-17T07:40:36.849Z,19.47
2022-08-17T07:43:41.442Z,19.46
2022-08-17T07:46:51.846Z,19.51
2022-08-17T07:49:53.290Z,19.67
2022-08-17T07:52:54.735Z,20.20
2022-08-17T07:55:56.267Z,20.38
2022-08-17T07:59:13.869Z,20.33
2022-08-17T08:02:16.920Z,20.29
2022-08-17T08:05:48.845Z,20.06
2022-08-17T08:08:55.522Z,19.94
2022-08-17T08:11:56.985Z,20.13
2022-08-17T08:15:15.405Z,19.94
2022-08-17T08:18:39.678Z,19.89
2022-08-17T08:21:58.470Z,19.77
2022-08-17T08:24:59.847Z,19.88
2022-08-17T08:28:16.915Z,19.91
2022-08-17T08:31:33.459Z,19.89
2022-08-17T08:35:01.658Z,19.74
2022-08-17T08:38:10.581Z,19.73
2022-08-17T08:41:44.127Z,19.69
2022-08-17T08:45:05.679Z,19.69
2022-08-17T08:48:23.044Z,19.68
2022-08-17T08:51:40.724Z,19.85
2022-08-17T08:54:52.013Z,19.82
2022-08-17T08:58:03.152Z,19.70
2022-08-17T09:01:17.145Z,19.69
2022-08-17T09:05:10.273Z,19.60
2022-08-17T09:08:19.654Z,19.61
2022-08-17T09:12:01.886Z,19.69
2022-08-17T09:15:26.818Z,19.78
2022-08-17T09:19:00.310Z,19.89
2022-08-17T09:22:31.118Z,20.09
2022-08-17T09:25:43.222Z,20.10
2022-08-17T09:28:50.466Z,20.11
2022-08-17T09:32:00.670Z,20.11
2022-08-17T09:35:11.061Z,20.42
2022-08-17T09:38:37.469Z,20.51
2022-08-17T09:42:11.702Z,20.49
2022-08-17T09:45:26.401Z,20.39
2022-08-17T09:48:38.418Z,20.46
2022-08-17T09:51:48.452Z,20.32
2022-08-17T09:54:52.489Z,20.24
2022-08-17T09:58:01.846Z,20.13
2022-08-17T10:01:24.092Z,20.08
2022-08-17T10:04:32.034Z,20.21
2022-08-17T10:07:44.273Z,20.37
2022-08-17T10:10:57.164Z,20.82
2022-08-17T10:14:36.472Z,21.05
2022-08-17T10:17:42.153Z,21.42
2022-08-17T10:20:49.377Z,21.45
2022-08-17T10:23:58.447Z,21.46
2022-08-17T10:27:02.937Z,21.39
2022-08-17T10:30:06.050Z,21.35
2022-08-17T10:33:16.697Z,21.16
2022-08-17T10:36:33.961Z,21.12
2022-08-17T10:39:58.030Z,21.24
2022-08-17T10:43:19.942Z,21.07
2022-08-17T10:46:44.586Z,21.06
2022-08-17T10:49:48.537Z,21.09
2022-08-17T10:52:50.248Z,21.01
2022-08-17T10:56:13.334Z,20.81
2022-08-17T10:59:36.543Z,20.76
2022-08-17T11:02:55.447Z,20.77
2022-08-17T11:06:02.368Z,20.84
2022-08-17T11:09:30.588Z,20.85
2022-08-17T11:12:46.505Z,20.77
2022-08-17T11:19:24.830Z,20.87
2022-08-17T11:22:45.487Z,20.72
2022-08-17T11:25:53.120Z,20.52
2022-08-17T11:29:03.013Z,20.32
2022-08-17T11:32:11.222Z,19.98
2022-08-17T11:35:22.157Z,19.75
2022-08-17T11:38:40.815Z,19.41
2022-08-17T11:42:00.776Z,19.16
2022-08-17T11:45:32.262Z,18.96
2022-08-17T11:49:01.157Z,18.93
2022-08-17T11:52:03.123Z,19.02
2022-08-17T11:55:33.907Z,19.16
2022-08-17T11:58:30.444Z,19.25
2022-08-17T12:01:32.389Z,19.32
2022-08-17T12:04:35.992Z,19.43
2022-08-17T12:08:10.494Z,19.43
2022-08-17T12:11:55.461Z,19.34
2022-08-17T12:15:09.438Z,19.23
2022-08-17T12:18:24.091Z,19.03
2022-08-17T12:21:43.026Z,18.96
2022-08-17T12:24:51.212Z,18.89
2022-08-17T12:28:05.550Z,18.87
2022-08-17T12:31:26.008Z,18.91
2022-08-17T12:34:35.440Z,18.87
2022-08-17T12:37:49.966Z,18.78
2022-08-17T12:40:55.693Z,18.73
2022-08-17T12:44:05.350Z,18.68
2022-08-17T12:47:21.096Z,18.73
2022-08-17T12:50:28.627Z,18.73
2022-08-17T12:53:33.879Z,18.76
2022-08-17T12:56:36.093Z,18.79
2022-08-17T12:59:42.693Z,18.78
2022-08-17T13:03:00.271Z,18.80
2022-08-17T13:06:07.810Z,18.81
2022-08-17T13:09:23.058Z,18.81
2022-08-17T13:12:39.157Z,18.85
2022-08-17T13:15:51.380Z,18.83
2022-08-17T13:19:04.623Z,18.83
2022-08-17T13:22:10.834Z,18.81
2022-08-17T13:25:16.563Z,18.84
2022-08-17T13:28:32.458Z,18.87
2022-08-17T13:31:52.823Z,19.01
2022-08-17T13:35:13.766Z,19.10
2022-08-17T13:38:38.959Z,19.13
2022-08-17T13:41:41.351Z,19.17
2022-08-17T13:44:43.436Z,19.23
2022-08-17T13:47:45.461Z,19.28
2022-08-17T13:50:56.540Z,19.14
2022-08-17T13:54:01.358Z,19.17
2022-08-17T13:57:06.935Z,19.29
2022-08-17T14:00:28.663Z,19.43
2022-08-17T14:03:30.688Z,19.54
2022-08-17T14:06:52.504Z,19.53
2022-08-17T14:09:59.801Z,19.62
2022-08-17T14:13:01.854Z,19.70
2022-08-17T14:16:04.082Z,19.60
2022-08-17T14:19:06.114Z,19.55
2022-08-17T14:22:16.759Z,19.66
2022-08-17T14:25:23.733Z,19.69
2022-08-17T14:28:25.797Z,19.87
2022-08-17T14:31:32.944Z,20.05
2022-08-17T14:34:38.907Z,20.00
2022-08-17T14:37:41.714Z,20.01
2022-08-17T14:40:43.766Z,20.01
2022-08-17T14:43:45.760Z,20.04
2022-08-17T14:46:47.826Z,20.10
2022-08-17T14:49:49.963Z,19.99
2022-08-17T14:52:51.964Z,19.95
2022-08-17T14:55:54.034Z,20.02
2022-08-17T14:58:56.488Z,20.19
2022-08-17T15:01:58.540Z,20.34
2022-08-17T15:05:02.758Z,20.16
2022-08-17T15:08:06.172Z,20.23
2022-08-17T15:11:08.531Z,20.24
2022-08-17T15:14:16.387Z,20.33
2022-08-17T15:17:18.420Z,20.31
2022-08-17T15:20:24.576Z,20.20
2022-08-17T15:23:27.005Z,20.04
2022-08-17T15:26:29.022Z,19.95
2022-08-17T15:29:31.048Z,20.05
2022-08-17T15:32:35.522Z,20.17
2022-08-17T15:35:37.548Z,20.18
2022-08-17T15:38:39.579Z,20.12
2022-08-17T15:41:41.587Z,20.10
2022-08-17T15:44:43.621Z,19.94
2022-08-17T15:47:45.644Z,19.96
2022-08-17T15:50:47.666Z,20.04
2022-08-17T15:53:59.097Z,20.05
2022-08-17T15:57:01.134Z,20.03
2022-08-17T16:00:05.600Z,19.99
2022-08-17T16:03:58.329Z,19.88
2022-08-17T16:06:36.027Z,19.85
2022-08-17T16:09:38.077Z,19.84
2022-08-17T16:12:40.611Z,19.88
2022-08-17T16:15:42.765Z,19.87
2022-08-17T16:18:44.826Z,19.82
2022-08-17T16:21:46.870Z,19.70
2022-08-17T16:24:57.317Z,19.61
2022-08-17T16:28:00.413Z,19.57
2022-08-17T16:31:02.550Z,19.62
2022-08-17T16:34:18.071Z,19.62
2022-08-17T16:37:20.638Z,19.56
2022-08-17T16:40:25.558Z,19.47
2022-08-17T16:43:27.678Z,19.44
2022-08-17T16:46:30.054Z,19.41
2022-08-17T16:49:37.466Z,19.40
2022-08-17T16:52:40.964Z,19.34
2022-08-17T16:55:43.873Z,19.32
2022-08-17T16:58:45.988Z,19.30
2022-08-17T17:01:53.094Z,19.31
2022-08-17T17:05:23.421Z,19.42
2022-08-17T17:08:39.493Z,19.38
2022-08-17T17:11:56.805Z,19.32
2022-08-17T17:14:58.906Z,19.33
2022-08-17T17:18:07.272Z,19.22
2022-08-17T17:21:16.260Z,19.18
2022-08-17T17:24:41.381Z,19.17
2022-08-17T17:27:55.987Z,19.15
2022-08-17T17:31:14.409Z,19.11
2022-08-17T17:34:16.484Z,19.11
2022-08-17T17:37:31.012Z,19.11
2022-08-17T17:40:40.072Z,19.04
2022-08-17T17:43:42.984Z,19.03
2022-08-17T17:46:52.944Z,19.05
2022-08-17T17:49:55.045Z,18.98
2022-08-17T17:53:05.950Z,18.96
2022-08-17T17:56:44.100Z,18.91
2022-08-17T17:59:58.590Z,18.83
2022-08-17T18:03:31.076Z,18.79
2022-08-17T18:06:55.286Z,18.77
2022-08-17T18:10:29.258Z,18.66
2022-08-17T18:13:54.465Z,18.64
2022-08-17T18:16:59.314Z,18.61
2022-08-17T18:20:01.598Z,18.55
2022-08-17T18:23:03.970Z,18.57
2022-08-17T18:26:06.151Z,18.57
2022-08-17T18:29:32.069Z,18.60
2022-08-17T18:32:39.052Z,18.60
2022-08-17T18:35:51.667Z,18.56
2022-08-17T18:39:10.399Z,18.57
2022-08-17T18:42:26.331Z,18.48
2022-08-17T18:45:37.017Z,18.45
2022-08-17T18:49:00.464Z,18.45
2022-08-17T18:52:17.393Z,18.44
2022-08-17T18:55:25.034Z,18.41
2022-08-17T18:58:27.075Z,18.41
2022-08-17T19:01:53.381Z,18.39
2022-08-17T19:05:11.776Z,18.41
2022-08-17T19:08:35.026Z,18.42
2022-08-17T19:11:38.625Z,18.37
2022-08-17T19:14:41.195Z,18.33
2022-08-17T19:17:54.717Z,18.30
2022-08-17T19:21:20.161Z,18.26
2022-08-17T19:24:24.961Z,18.26
2022-08-17T19:27:46.310Z,18.28
2022-08-17T19:31:13.829Z,18.22
2022-08-17T19:34:17.685Z,18.13
2022-08-17T19:37:46.977Z,18.10
2022-08-17T19:41:00.161Z,18.08
2022-08-17T19:44:13.987Z,18.06
2022-08-17T19:47:51.242Z,18.09
2022-08-17T19:50:52.715Z,18.15
2022-08-17T19:54:10.764Z,18.23
2022-08-17T19:57:36.151Z,18.27
2022-08-17T20:00:48.932Z,18.26
2022-08-17T20:03:56.929Z,18.24
2022-08-17T20:07:07.824Z,18.18
2022-08-17T20:10:20.494Z,18.11
2022-08-17T20:13:40.952Z,17.98
2022-08-17T20:16:43.011Z,17.94
2022-08-17T20:19:57.592Z,17.90
2022-08-17T20:23:20.033Z,17.86
2022-08-17T20:26:51.877Z,17.87
2022-08-17T20:30:37.767Z,17.84
2022-08-17T20:33:39.824Z,17.81
2022-08-17T20:37:09.678Z,17.86
2022-08-17T20:40:18.737Z,17.84
2022-08-17T20:43:29.864Z,17.84
2022-08-17T20:46:37.649Z,17.85
2022-08-17T20:49:42.343Z,17.86
2022-08-17T20:53:10.752Z,17.85
2022-08-17T20:56:53.198Z,17.86
2022-08-17T20:59:59.219Z,17.84
2022-08-17T21:03:19.235Z,17.84
2022-08-17T21:06:23.508Z,17.83
2022-08-17T21:09:29.667Z,17.78
2022-08-17T21:12:44.207Z,17.79
2022-08-17T21:15:55.481Z,17.80
2022-08-17T21:19:54.166Z,17.83
2022-08-17T21:23:13.770Z,17.84
2022-08-17T21:26:21.343Z,17.85
2022-08-17T21:29:32.368Z,17.87
2022-08-17T21:32:40.417Z,17.86
2022-08-17T21:35:53.998Z,17.88
2022-08-17T21:39:07.848Z,17.87
2022-08-17T21:42:12.250Z,17.90
2022-08-17T21:45:22.152Z,17.90
2022-08-17T21:48:25.456Z,17.91
2022-08-17T21:51:28.822Z,17.98
2022-08-17T21:54:41.465Z,18.03
2022-08-17T21:57:53.088Z,18.06
2022-08-17T22:01:23.662Z,18.10
2022-08-17T22:04:32.167Z,18.08
2022-08-17T22:07:47.716Z,18.09
2022-08-17T22:10:51.037Z,18.09
2022-08-17T22:14:00.692Z,18.05
2022-08-17T22:17:18.480Z,18.00
2022-08-17T22:20:21.008Z,17.96
2022-08-17T22:23:28.137Z,17.92
2022-08-17T22:27:03.481Z,17.88
2022-08-17T22:30:17.815Z,17.83
2022-08-17T22:33:39.675Z,17.71
2022-08-17T22:36:42.930Z,17.70
2022-08-17T22:39:45.084Z,17.69
2022-08-17T22:42:47.165Z,17.68
2022-08-17T22:45:56.529Z,17.70
2022-08-17T22:48:58.934Z,17.66
2022-08-17T22:52:07.612Z,17.62
2022-08-17T22:55:16.234Z,17.59
2022-08-17T22:58:21.648Z,17.57
2022-08-17T23:01:29.651Z,17.58
2022-08-17T23:04:33.650Z,17.56
2022-08-17T23:07:35.666Z,17.53
2022-08-17T23:10:37.863Z,17.49
2022-08-17T23:13:39.896Z,17.49
2022-08-17T23:16:42.579Z,17.46
2022-08-17T23:19:44.643Z,17.41
2022-08-17T23:22:52.460Z,17.40
2022-08-17T23:25:55.053Z,17.30
2022-08-17T23:28:57.082Z,17.25
2022-08-17T23:32:00.194Z,17.15
2022-08-17T23:35:02.251Z,17.09
2022-08-17T23:38:04.257Z,17.14
2022-08-17T23:41:13.168Z,17.22
2022-08-17T23:44:15.298Z,17.22
2022-08-17T23:47:17.310Z,17.20
2022-08-17T23:50:19.325Z,17.24
2022-08-17T23:53:22.644Z,17.26
2022-08-17T23:56:24.680Z,17.31
2022-08-17T23:59:26.710Z,17.29
